Terminal Aerodrome Forecast
Issued by NWS

Home | Current Version | Previous Version | Text Only | Print | Product List | Glossary On
Versions: 1 2 3 4 5 6 7 8 9 10 11 12 13 14 15 16 17 18 19 20 21 22 23
000
FTUS44 KMAF 310521
TAFINK
TAF
KINK 310521Z 3106/0106 01007KT P6SM SCT050 BKN090
     FM310900 08006KT P6SM -SHRA BKN035
     FM312000 35008KT P6SM SCT050 BKN100=

USA.gov is the U.S. government's official web portal to all federal, state and local government web resources and services.